sensor_id;sensor_type;location;lat;lon;timestamp;P1;durP1;ratioP1;P2;durP2;ratioP2
10166;SDS011;62970;53.130;8.244;2023-02-15T00:01:57;20.57;;;16.10;;
10166;SDS011;62970;53.130;8.244;2023-02-15T00:04:31;19.37;;;15.03;;
10166;SDS011;62970;53.130;8.244;2023-02-15T00:07:16;26.37;;;14.53;;
10166;SDS011;62970;53.130;8.244;2023-02-15T00:09:47;26.93;;;13.40;;
10166;SDS011;62970;53.130;8.244;2023-02-15T00:12:16;24.30;;;14.13;;
10166;SDS011;62970;53.130;8.244;2023-02-15T00:14:49;20.13;;;12.77;;
10166;SDS011;62970;53.130;8.244;2023-02-15T00:17:19;20.63;;;12.83;;
10166;SDS011;62970;53.130;8.244;2023-02-15T00:19:51;25.60;;;11.97;;
10166;SDS011;62970;53.130;8.244;2023-02-15T00:22:23;24.33;;;10.93;;
10166;SDS011;62970;53.130;8.244;2023-02-15T00:24:56;25.00;;;9.67;;
10166;SDS011;62970;53.130;8.244;2023-02-15T00:27:25;12.90;;;9.30;;
10166;SDS011;62970;53.130;8.244;2023-02-15T00:29:55;15.37;;;9.37;;
10166;SDS011;62970;53.130;8.244;2023-02-15T00:32:24;20.17;;;8.90;;
10166;SDS011;62970;53.130;8.244;2023-02-15T00:34:57;23.97;;;9.10;;
10166;SDS011;62970;53.130;8.244;2023-02-15T00:37:32;17.83;;;8.60;;
10166;SDS011;62970;53.130;8.244;2023-02-15T00:40:01;9.60;;;8.33;;
10166;SDS011;62970;53.130;8.244;2023-02-15T00:42:31;11.63;;;7.93;;
10166;SDS011;62970;53.130;8.244;2023-02-15T00:45:00;10.50;;;7.80;;
10166;SDS011;62970;53.130;8.244;2023-02-15T00:47:30;13.23;;;7.97;;
10166;SDS011;62970;53.130;8.244;2023-02-15T00:50:04;13.40;;;7.90;;
10166;SDS011;62970;53.130;8.244;2023-02-15T00:52:35;23.57;;;8.30;;
10166;SDS011;62970;53.130;8.244;2023-02-15T00:55:05;13.23;;;7.53;;
10166;SDS011;62970;53.130;8.244;2023-02-15T00:57:35;19.73;;;8.63;;
10166;SDS011;62970;53.130;8.244;2023-02-15T01:00:07;17.73;;;8.70;;
10166;SDS011;62970;53.130;8.244;2023-02-15T01:02:38;18.33;;;8.20;;
10166;SDS011;62970;53.130;8.244;2023-02-15T01:05:10;15.93;;;8.23;;
10166;SDS011;62970;53.130;8.244;2023-02-15T01:07:41;13.53;;;8.10;;
10166;SDS011;62970;53.130;8.244;2023-02-15T01:10:12;17.10;;;8.10;;
10166;SDS011;62970;53.130;8.244;2023-02-15T01:12:41;15.87;;;7.50;;
10166;SDS011;62970;53.130;8.244;2023-02-15T01:15:13;24.93;;;8.83;;
10166;SDS011;62970;53.130;8.244;2023-02-15T01:17:47;13.40;;;7.90;;
10166;SDS011;62970;53.130;8.244;2023-02-15T01:20:22;18.10;;;8.17;;
10166;SDS011;62970;53.130;8.244;2023-02-15T01:22:56;15.23;;;8.40;;
10166;SDS011;62970;53.130;8.244;2023-02-15T01:25:26;11.33;;;7.87;;
10166;SDS011;62970;53.130;8.244;2023-02-15T01:27:55;9.70;;;7.37;;
10166;SDS011;62970;53.130;8.244;2023-02-15T01:30:25;15.83;;;7.73;;
10166;SDS011;62970;53.130;8.244;2023-02-15T01:32:54;11.53;;;7.87;;
10166;SDS011;62970;53.130;8.244;2023-02-15T01:35:26;9.77;;;8.20;;
10166;SDS011;62970;53.130;8.244;2023-02-15T01:38:00;12.57;;;8.23;;
10166;SDS011;62970;53.130;8.244;2023-02-15T01:40:29;7.60;;;6.90;;
10166;SDS011;62970;53.130;8.244;2023-02-15T01:42:58;10.10;;;7.70;;
10166;SDS011;62970;53.130;8.244;2023-02-15T01:45:28;10.23;;;7.67;;
10166;SDS011;62970;53.130;8.244;2023-02-15T01:48:00;16.80;;;8.03;;
10166;SDS011;62970;53.130;8.244;2023-02-15T01:50:36;14.97;;;7.30;;
10166;SDS011;62970;53.130;8.244;2023-02-15T01:53:11;12.00;;;8.17;;
10166;SDS011;62970;53.130;8.244;2023-02-15T01:55:49;14.10;;;8.67;;
10166;SDS011;62970;53.130;8.244;2023-02-15T01:58:27;11.27;;;7.50;;
10166;SDS011;62970;53.130;8.244;2023-02-15T02:00:59;19.20;;;9.20;;
10166;SDS011;62970;53.130;8.244;2023-02-15T02:03:30;9.33;;;8.20;;
10166;SDS011;62970;53.130;8.244;2023-02-15T02:06:14;9.67;;;7.73;;
10166;SDS011;62970;53.130;8.244;2023-02-15T02:08:44;10.17;;;8.27;;
10166;SDS011;62970;53.130;8.244;2023-02-15T02:11:14;9.20;;;8.30;;
10166;SDS011;62970;53.130;8.244;2023-02-15T02:13:45;11.07;;;8.07;;
10166;SDS011;62970;53.130;8.244;2023-02-15T02:16:34;12.73;;;7.83;;
10166;SDS011;62970;53.130;8.244;2023-02-15T02:19:23;10.47;;;8.13;;
10166;SDS011;62970;53.130;8.244;2023-02-15T02:32:28;17.77;;;8.27;;
10166;SDS011;62970;53.130;8.244;2023-02-15T02:35:33;9.70;;;7.87;;
10166;SDS011;62970;53.130;8.244;2023-02-15T02:38:16;9.13;;;8.10;;
10166;SDS011;62970;53.130;8.244;2023-02-15T02:40:58;10.53;;;7.83;;
10166;SDS011;62970;53.130;8.244;2023-02-15T02:43:43;11.63;;;8.23;;
10166;SDS011;62970;53.130;8.244;2023-02-15T02:46:28;9.33;;;8.20;;
10166;SDS011;62970;53.130;8.244;2023-02-15T02:49:02;20.03;;;9.33;;
10166;SDS011;62970;53.130;8.244;2023-02-15T02:51:36;13.00;;;9.57;;
10166;SDS011;62970;53.130;8.244;2023-02-15T02:54:05;14.43;;;9.30;;
10166;SDS011;62970;53.130;8.244;2023-02-15T02:56:41;14.70;;;10.53;;
10166;SDS011;62970;53.130;8.244;2023-02-15T02:59:16;21.77;;;10.93;;
10166;SDS011;62970;53.130;8.244;2023-02-15T03:01:49;17.43;;;10.53;;
10166;SDS011;62970;53.130;8.244;2023-02-15T03:04:26;18.70;;;9.63;;
10166;SDS011;62970;53.130;8.244;2023-02-15T03:07:04;19.47;;;8.97;;
10166;SDS011;62970;53.130;8.244;2023-02-15T03:09:39;30.23;;;9.90;;
10166;SDS011;62970;53.130;8.244;2023-02-15T03:12:14;18.20;;;9.70;;
10166;SDS011;62970;53.130;8.244;2023-02-15T03:14:48;37.17;;;11.57;;
10166;SDS011;62970;53.130;8.244;2023-02-15T03:17:20;20.13;;;11.03;;
10166;SDS011;62970;53.130;8.244;2023-02-15T03:19:53;34.00;;;9.83;;
10166;SDS011;62970;53.130;8.244;2023-02-15T03:22:31;27.90;;;9.07;;
10166;SDS011;62970;53.130;8.244;2023-02-15T03:25:08;21.17;;;9.17;;
10166;SDS011;62970;53.130;8.244;2023-02-15T03:27:43;22.23;;;9.07;;
10166;SDS011;62970;53.130;8.244;2023-02-15T03:30:18;28.83;;;9.03;;
10166;SDS011;62970;53.130;8.244;2023-02-15T03:32:50;25.50;;;9.23;;
10166;SDS011;62970;53.130;8.244;2023-02-15T03:35:24;45.33;;;9.03;;
10166;SDS011;62970;53.130;8.244;2023-02-15T03:38:07;16.43;;;8.30;;
10166;SDS011;62970;53.130;8.244;2023-02-15T03:40:42;34.17;;;9.17;;
10166;SDS011;62970;53.130;8.244;2023-02-15T03:43:28;28.10;;;8.30;;
10166;SDS011;62970;53.130;8.244;2023-02-15T03:46:11;14.33;;;8.27;;
10166;SDS011;62970;53.130;8.244;2023-02-15T03:48:48;11.97;;;8.20;;
10166;SDS011;62970;53.130;8.244;2023-02-15T03:51:23;14.83;;;7.93;;
10166;SDS011;62970;53.130;8.244;2023-02-15T03:54:04;14.90;;;8.20;;
10166;SDS011;62970;53.130;8.244;2023-02-15T03:56:39;13.37;;;8.37;;
10166;SDS011;62970;53.130;8.244;2023-02-15T03:59:30;12.60;;;8.27;;
10166;SDS011;62970;53.130;8.244;2023-02-15T04:02:16;12.10;;;8.30;;
10166;SDS011;62970;53.130;8.244;2023-02-15T04:04:50;17.57;;;8.73;;
10166;SDS011;62970;53.130;8.244;2023-02-15T04:07:19;12.70;;;8.23;;
10166;SDS011;62970;53.130;8.244;2023-02-15T04:09:53;13.40;;;8.07;;
10166;SDS011;62970;53.130;8.244;2023-02-15T04:12:36;9.53;;;8.03;;
10166;SDS011;62970;53.130;8.244;2023-02-15T04:15:08;13.90;;;8.83;;
10166;SDS011;62970;53.130;8.244;2023-02-15T04:17:54;13.93;;;8.30;;
10166;SDS011;62970;53.130;8.244;2023-02-15T04:20:23;14.00;;;8.73;;
10166;SDS011;62970;53.130;8.244;2023-02-15T04:23:05;11.83;;;8.03;;
10166;SDS011;62970;53.130;8.244;2023-02-15T04:25:50;10.73;;;8.13;;
10166;SDS011;62970;53.130;8.244;2023-02-15T04:28:30;14.23;;;8.87;;
10166;SDS011;62970;53.130;8.244;2023-02-15T04:30:59;12.13;;;8.67;;
10166;SDS011;62970;53.130;8.244;2023-02-15T04:33:28;12.27;;;8.70;;
10166;SDS011;62970;53.130;8.244;2023-02-15T04:35:59;11.50;;;8.57;;
10166;SDS011;62970;53.130;8.244;2023-02-15T04:38:28;13.13;;;9.37;;
10166;SDS011;62970;53.130;8.244;2023-02-15T04:41:00;11.57;;;8.53;;
10166;SDS011;62970;53.130;8.244;2023-02-15T04:43:30;11.67;;;8.80;;
10166;SDS011;62970;53.130;8.244;2023-02-15T04:46:00;12.70;;;9.47;;
10166;SDS011;62970;53.130;8.244;2023-02-15T04:48:30;12.57;;;8.93;;
10166;SDS011;62970;53.130;8.244;2023-02-15T04:51:07;14.03;;;9.37;;
10166;SDS011;62970;53.130;8.244;2023-02-15T04:53:41;10.87;;;8.67;;
10166;SDS011;62970;53.130;8.244;2023-02-15T04:56:14;12.07;;;8.57;;
10166;SDS011;62970;53.130;8.244;2023-02-15T04:58:44;11.30;;;8.43;;
10166;SDS011;62970;53.130;8.244;2023-02-15T05:01:13;12.27;;;9.27;;
10166;SDS011;62970;53.130;8.244;2023-02-15T05:03:42;11.87;;;8.83;;
10166;SDS011;62970;53.130;8.244;2023-02-15T05:06:13;11.23;;;9.00;;
10166;SDS011;62970;53.130;8.244;2023-02-15T05:08:45;11.40;;;8.70;;
10166;SDS011;62970;53.130;8.244;2023-02-15T05:11:17;11.50;;;9.20;;
10166;SDS011;62970;53.130;8.244;2023-02-15T05:13:50;11.00;;;8.53;;
10166;SDS011;62970;53.130;8.244;2023-02-15T05:16:21;10.57;;;8.73;;
10166;SDS011;62970;53.130;8.244;2023-02-15T05:18:53;10.67;;;8.60;;
10166;SDS011;62970;53.130;8.244;2023-02-15T05:21:24;11.37;;;9.23;;
10166;SDS011;62970;53.130;8.244;2023-02-15T05:23:53;13.80;;;10.77;;
10166;SDS011;62970;53.130;8.244;2023-02-15T05:26:28;15.60;;;11.70;;
10166;SDS011;62970;53.130;8.244;2023-02-15T05:29:10;16.50;;;11.93;;
10166;SDS011;62970;53.130;8.244;2023-02-15T05:31:41;15.63;;;11.20;;
10166;SDS011;62970;53.130;8.244;2023-02-15T05:34:15;18.70;;;12.60;;
10166;SDS011;62970;53.130;8.244;2023-02-15T05:36:47;16.73;;;11.63;;
10166;SDS011;62970;53.130;8.244;2023-02-15T05:39:16;16.67;;;11.97;;
10166;SDS011;62970;53.130;8.244;2023-02-15T05:41:52;15.33;;;12.13;;
10166;SDS011;62970;53.130;8.244;2023-02-15T05:44:26;14.57;;;10.57;;
10166;SDS011;62970;53.130;8.244;2023-02-15T05:46:56;13.23;;;10.30;;
10166;SDS011;62970;53.130;8.244;2023-02-15T05:49:28;14.33;;;10.40;;
10166;SDS011;62970;53.130;8.244;2023-02-15T05:51:58;14.60;;;9.97;;
10166;SDS011;62970;53.130;8.244;2023-02-15T05:54:31;14.20;;;10.30;;
10166;SDS011;62970;53.130;8.244;2023-02-15T05:57:03;15.53;;;11.03;;
10166;SDS011;62970;53.130;8.244;2023-02-15T05:59:33;16.03;;;10.60;;
10166;SDS011;62970;53.130;8.244;2023-02-15T06:02:04;14.40;;;10.67;;
10166;SDS011;62970;53.130;8.244;2023-02-15T06:04:42;14.10;;;10.20;;
10166;SDS011;62970;53.130;8.244;2023-02-15T06:07:11;14.50;;;10.37;;
10166;SDS011;62970;53.130;8.244;2023-02-15T06:09:46;13.60;;;10.63;;
10166;SDS011;62970;53.130;8.244;2023-02-15T06:12:20;14.03;;;10.17;;
10166;SDS011;62970;53.130;8.244;2023-02-15T06:14:50;13.63;;;10.20;;
10166;SDS011;62970;53.130;8.244;2023-02-15T06:17:21;11.77;;;9.07;;
10166;SDS011;62970;53.130;8.244;2023-02-15T06:19:50;13.13;;;9.63;;
10166;SDS011;62970;53.130;8.244;2023-02-15T06:22:21;12.20;;;9.63;;
10166;SDS011;62970;53.130;8.244;2023-02-15T06:24:50;13.63;;;10.40;;
10166;SDS011;62970;53.130;8.244;2023-02-15T06:27:28;12.57;;;10.00;;
10166;SDS011;62970;53.130;8.244;2023-02-15T06:29:57;12.23;;;9.97;;
10166;SDS011;62970;53.130;8.244;2023-02-15T06:32:27;13.70;;;9.20;;
10166;SDS011;62970;53.130;8.244;2023-02-15T06:34:58;13.03;;;9.73;;
10166;SDS011;62970;53.130;8.244;2023-02-15T06:37:27;14.47;;;10.63;;
10166;SDS011;62970;53.130;8.244;2023-02-15T06:39:57;14.30;;;10.73;;
10166;SDS011;62970;53.130;8.244;2023-02-15T06:42:34;14.20;;;10.83;;
10166;SDS011;62970;53.130;8.244;2023-02-15T06:45:07;15.03;;;10.67;;
10166;SDS011;62970;53.130;8.244;2023-02-15T06:47:37;12.87;;;10.00;;
10166;SDS011;62970;53.130;8.244;2023-02-15T06:50:09;11.87;;;10.00;;
10166;SDS011;62970;53.130;8.244;2023-02-15T06:52:41;11.97;;;9.87;;
10166;SDS011;62970;53.130;8.244;2023-02-15T06:55:12;14.90;;;10.20;;
10166;SDS011;62970;53.130;8.244;2023-02-15T06:57:45;13.30;;;9.03;;
10166;SDS011;62970;53.130;8.244;2023-02-15T07:00:17;11.60;;;9.43;;
10166;SDS011;62970;53.130;8.244;2023-02-15T07:02:52;11.70;;;9.40;;
10166;SDS011;62970;53.130;8.244;2023-02-15T07:05:23;11.10;;;9.37;;
10166;SDS011;62970;53.130;8.244;2023-02-15T07:07:56;12.77;;;10.10;;
10166;SDS011;62970;53.130;8.244;2023-02-15T07:10:27;11.40;;;9.70;;
10166;SDS011;62970;53.130;8.244;2023-02-15T07:13:00;12.60;;;9.60;;
10166;SDS011;62970;53.130;8.244;2023-02-15T07:15:28;12.10;;;10.40;;
10166;SDS011;62970;53.130;8.244;2023-02-15T07:17:58;13.87;;;9.80;;
10166;SDS011;62970;53.130;8.244;2023-02-15T07:20:30;11.93;;;10.10;;
10166;SDS011;62970;53.130;8.244;2023-02-15T07:23:00;13.93;;;10.77;;
10166;SDS011;62970;53.130;8.244;2023-02-15T07:25:33;13.67;;;11.07;;
10166;SDS011;62970;53.130;8.244;2023-02-15T07:28:07;12.00;;;10.80;;
10166;SDS011;62970;53.130;8.244;2023-02-15T07:30:37;11.90;;;10.60;;
10166;SDS011;62970;53.130;8.244;2023-02-15T07:33:14;13.63;;;10.70;;
10166;SDS011;62970;53.130;8.244;2023-02-15T07:35:57;13.43;;;11.00;;
10166;SDS011;62970;53.130;8.244;2023-02-15T07:38:29;14.67;;;11.43;;
10166;SDS011;62970;53.130;8.244;2023-02-15T07:41:01;13.07;;;10.53;;
10166;SDS011;62970;53.130;8.244;2023-02-15T07:43:37;13.90;;;11.03;;
10166;SDS011;62970;53.130;8.244;2023-02-15T07:46:10;13.23;;;11.33;;
10166;SDS011;62970;53.130;8.244;2023-02-15T07:48:44;14.20;;;11.57;;
10166;SDS011;62970;53.130;8.244;2023-02-15T07:51:14;15.07;;;10.83;;
10166;SDS011;62970;53.130;8.244;2023-02-15T07:53:43;12.73;;;11.20;;
10166;SDS011;62970;53.130;8.244;2023-02-15T07:56:14;13.67;;;11.27;;
10166;SDS011;62970;53.130;8.244;2023-02-15T07:58:47;15.90;;;12.10;;
10166;SDS011;62970;53.130;8.244;2023-02-15T08:01:21;14.50;;;11.80;;
10166;SDS011;62970;53.130;8.244;2023-02-15T08:03:58;15.67;;;11.57;;
10166;SDS011;62970;53.130;8.244;2023-02-15T08:06:29;15.53;;;13.30;;
10166;SDS011;62970;53.130;8.244;2023-02-15T08:09:00;15.13;;;12.17;;
10166;SDS011;62970;53.130;8.244;2023-02-15T08:11:33;17.50;;;13.70;;
10166;SDS011;62970;53.130;8.244;2023-02-15T08:14:09;14.90;;;13.13;;
10166;SDS011;62970;53.130;8.244;2023-02-15T08:16:41;15.90;;;13.73;;
10166;SDS011;62970;53.130;8.244;2023-02-15T08:19:13;16.40;;;14.27;;
10166;SDS011;62970;53.130;8.244;2023-02-15T08:21:45;16.13;;;13.57;;
10166;SDS011;62970;53.130;8.244;2023-02-15T08:24:20;16.70;;;14.63;;
10166;SDS011;62970;53.130;8.244;2023-02-15T08:26:53;16.63;;;14.83;;
10166;SDS011;62970;53.130;8.244;2023-02-15T08:29:28;16.67;;;14.37;;
10166;SDS011;62970;53.130;8.244;2023-02-15T08:32:08;17.37;;;14.97;;
10166;SDS011;62970;53.130;8.244;2023-02-15T08:34:41;19.13;;;15.90;;
10166;SDS011;62970;53.130;8.244;2023-02-15T08:37:12;17.47;;;15.30;;
10166;SDS011;62970;53.130;8.244;2023-02-15T08:39:43;17.30;;;15.23;;
10166;SDS011;62970;53.130;8.244;2023-02-15T08:42:17;18.77;;;15.97;;
10166;SDS011;62970;53.130;8.244;2023-02-15T08:44:49;18.00;;;16.07;;
10166;SDS011;62970;53.130;8.244;2023-02-15T08:47:23;19.57;;;16.93;;
10166;SDS011;62970;53.130;8.244;2023-02-15T08:49:54;20.33;;;16.67;;
10166;SDS011;62970;53.130;8.244;2023-02-15T08:52:23;20.53;;;18.23;;
10166;SDS011;62970;53.130;8.244;2023-02-15T08:54:52;21.00;;;17.40;;
10166;SDS011;62970;53.130;8.244;2023-02-15T08:57:22;20.07;;;16.73;;
10166;SDS011;62970;53.130;8.244;2023-02-15T08:59:54;22.17;;;18.03;;
10166;SDS011;62970;53.130;8.244;2023-02-15T09:02:24;21.07;;;18.03;;
10166;SDS011;62970;53.130;8.244;2023-02-15T09:04:54;22.87;;;19.13;;
10166;SDS011;62970;53.130;8.244;2023-02-15T09:07:26;23.50;;;17.97;;
10166;SDS011;62970;53.130;8.244;2023-02-15T09:09:55;23.33;;;19.73;;
10166;SDS011;62970;53.130;8.244;2023-02-15T09:12:27;21.87;;;18.97;;
10166;SDS011;62970;53.130;8.244;2023-02-15T09:15:02;21.40;;;18.73;;
10166;SDS011;62970;53.130;8.244;2023-02-15T09:17:32;21.33;;;18.97;;
10166;SDS011;62970;53.130;8.244;2023-02-15T09:20:06;22.60;;;20.17;;
10166;SDS011;62970;53.130;8.244;2023-02-15T09:22:37;23.90;;;20.70;;
10166;SDS011;62970;53.130;8.244;2023-02-15T09:25:08;24.97;;;20.80;;
10166;SDS011;62970;53.130;8.244;2023-02-15T09:27:41;24.77;;;20.70;;
10166;SDS011;62970;53.130;8.244;2023-02-15T09:30:18;25.60;;;21.27;;
10166;SDS011;62970;53.130;8.244;2023-02-15T09:32:48;25.37;;;22.67;;
10166;SDS011;62970;53.130;8.244;2023-02-15T09:35:17;25.20;;;21.50;;
10166;SDS011;62970;53.130;8.244;2023-02-15T09:37:46;26.13;;;22.47;;
10166;SDS011;62970;53.130;8.244;2023-02-15T09:40:16;25.17;;;21.77;;
10166;SDS011;62970;53.130;8.244;2023-02-15T09:42:50;25.53;;;22.27;;
10166;SDS011;62970;53.130;8.244;2023-02-15T09:46:00;26.37;;;22.57;;
10166;SDS011;62970;53.130;8.244;2023-02-15T09:48:50;25.77;;;21.27;;
10166;SDS011;62970;53.130;8.244;2023-02-15T09:54:37;26.00;;;21.73;;
10166;SDS011;62970;53.130;8.244;2023-02-15T09:57:22;26.60;;;22.37;;
10166;SDS011;62970;53.130;8.244;2023-02-15T10:00:05;26.50;;;23.23;;
10166;SDS011;62970;53.130;8.244;2023-02-15T10:02:49;25.57;;;22.63;;
10166;SDS011;62970;53.130;8.244;2023-02-15T10:05:42;26.10;;;22.50;;
10166;SDS011;62970;53.130;8.244;2023-02-15T10:11:52;28.67;;;22.93;;
10166;SDS011;62970;53.130;8.244;2023-02-15T10:14:50;26.90;;;23.10;;
10166;SDS011;62970;53.130;8.244;2023-02-15T10:18:01;26.93;;;23.97;;
10166;SDS011;62970;53.130;8.244;2023-02-15T10:20:54;26.97;;;22.67;;
10166;SDS011;62970;53.130;8.244;2023-02-15T10:26:34;25.03;;;22.37;;
10166;SDS011;62970;53.130;8.244;2023-02-15T10:29:14;26.43;;;23.63;;
10166;SDS011;62970;53.130;8.244;2023-02-15T10:32:01;28.63;;;24.33;;
10166;SDS011;62970;53.130;8.244;2023-02-15T10:34:50;28.03;;;23.20;;
10166;SDS011;62970;53.130;8.244;2023-02-15T10:37:37;28.13;;;23.30;;
10166;SDS011;62970;53.130;8.244;2023-02-15T10:40:36;27.10;;;23.43;;
10166;SDS011;62970;53.130;8.244;2023-02-15T10:46:43;26.83;;;23.90;;
10166;SDS011;62970;53.130;8.244;2023-02-15T10:49:36;27.97;;;24.93;;
10166;SDS011;62970;53.130;8.244;2023-02-15T10:52:29;31.60;;;26.43;;
10166;SDS011;62970;53.130;8.244;2023-02-15T10:55:12;27.70;;;24.57;;
10166;SDS011;62970;53.130;8.244;2023-02-15T10:57:51;30.17;;;25.87;;
10166;SDS011;62970;53.130;8.244;2023-02-15T11:00:27;30.40;;;25.87;;
10166;SDS011;62970;53.130;8.244;2023-02-15T11:03:12;31.07;;;25.27;;
10166;SDS011;62970;53.130;8.244;2023-02-15T11:06:10;30.77;;;25.67;;
10166;SDS011;62970;53.130;8.244;2023-02-15T11:08:44;27.57;;;24.10;;
10166;SDS011;62970;53.130;8.244;2023-02-15T11:11:20;28.83;;;25.70;;
10166;SDS011;62970;53.130;8.244;2023-02-15T11:13:59;31.87;;;27.13;;
10166;SDS011;62970;53.130;8.244;2023-02-15T11:16:38;30.80;;;26.57;;
10166;SDS011;62970;53.130;8.244;2023-02-15T11:19:12;31.63;;;27.97;;
10166;SDS011;62970;53.130;8.244;2023-02-15T11:22:05;33.97;;;27.50;;
10166;SDS011;62970;53.130;8.244;2023-02-15T11:27:23;33.23;;;28.53;;
10166;SDS011;62970;53.130;8.244;2023-02-15T11:29:58;32.43;;;28.03;;
10166;SDS011;62970;53.130;8.244;2023-02-15T11:32:38;33.70;;;27.50;;
10166;SDS011;62970;53.130;8.244;2023-02-15T11:35:25;33.63;;;28.57;;
10166;SDS011;62970;53.130;8.244;2023-02-15T11:38:06;30.53;;;27.10;;
10166;SDS011;62970;53.130;8.244;2023-02-15T11:40:46;38.77;;;29.70;;
10166;SDS011;62970;53.130;8.244;2023-02-15T11:43:23;34.20;;;27.70;;
10166;SDS011;62970;53.130;8.244;2023-02-15T11:46:02;35.37;;;30.00;;
10166;SDS011;62970;53.130;8.244;2023-02-15T11:48:32;36.23;;;30.33;;
10166;SDS011;62970;53.130;8.244;2023-02-15T11:51:08;35.77;;;28.80;;
10166;SDS011;62970;53.130;8.244;2023-02-15T11:53:45;32.10;;;28.57;;
10166;SDS011;62970;53.130;8.244;2023-02-15T11:56:18;32.97;;;29.17;;
10166;SDS011;62970;53.130;8.244;2023-02-15T11:58:53;33.93;;;29.00;;
10166;SDS011;62970;53.130;8.244;2023-02-15T12:01:29;33.13;;;28.83;;
10166;SDS011;62970;53.130;8.244;2023-02-15T12:04:02;33.77;;;30.10;;
10166;SDS011;62970;53.130;8.244;2023-02-15T12:06:38;36.03;;;29.77;;
10166;SDS011;62970;53.130;8.244;2023-02-15T12:09:22;34.57;;;30.07;;
10166;SDS011;62970;53.130;8.244;2023-02-15T12:14:52;36.93;;;30.47;;
10166;SDS011;62970;53.130;8.244;2023-02-15T12:17:24;35.23;;;29.63;;
10166;SDS011;62970;53.130;8.244;2023-02-15T12:19:59;35.50;;;29.53;;
10166;SDS011;62970;53.130;8.244;2023-02-15T12:22:31;36.47;;;30.53;;
10166;SDS011;62970;53.130;8.244;2023-02-15T12:25:19;34.57;;;29.37;;
10166;SDS011;62970;53.130;8.244;2023-02-15T12:27:52;33.00;;;28.73;;
10166;SDS011;62970;53.130;8.244;2023-02-15T12:30:22;35.60;;;29.77;;
10166;SDS011;62970;53.130;8.244;2023-02-15T12:33:02;36.70;;;30.47;;
10166;SDS011;62970;53.130;8.244;2023-02-15T12:35:43;33.83;;;29.87;;
10166;SDS011;62970;53.130;8.244;2023-02-15T12:38:23;35.20;;;29.77;;
10166;SDS011;62970;53.130;8.244;2023-02-15T12:41:01;35.73;;;30.50;;
10166;SDS011;62970;53.130;8.244;2023-02-15T12:43:37;32.97;;;28.00;;
10166;SDS011;62970;53.130;8.244;2023-02-15T12:46:14;36.10;;;28.90;;
10166;SDS011;62970;53.130;8.244;2023-02-15T12:49:05;35.23;;;28.27;;
10166;SDS011;62970;53.130;8.244;2023-02-15T12:51:46;32.27;;;27.90;;
10166;SDS011;62970;53.130;8.244;2023-02-15T12:54:32;32.83;;;27.37;;
10166;SDS011;62970;53.130;8.244;2023-02-15T12:57:25;32.13;;;26.37;;
10166;SDS011;62970;53.130;8.244;2023-02-15T12:59:58;33.23;;;26.50;;
10166;SDS011;62970;53.130;8.244;2023-02-15T13:02:33;30.87;;;26.87;;
10166;SDS011;62970;53.130;8.244;2023-02-15T13:05:17;33.10;;;27.63;;
10166;SDS011;62970;53.130;8.244;2023-02-15T13:07:52;33.00;;;27.00;;
10166;SDS011;62970;53.130;8.244;2023-02-15T13:10:26;32.20;;;27.03;;
10166;SDS011;62970;53.130;8.244;2023-02-15T13:13:18;32.37;;;25.37;;
10166;SDS011;62970;53.130;8.244;2023-02-15T13:15:52;30.27;;;24.93;;
10166;SDS011;62970;53.130;8.244;2023-02-15T13:18:29;33.70;;;26.80;;
10166;SDS011;62970;53.130;8.244;2023-02-15T13:21:04;32.13;;;25.70;;
10166;SDS011;62970;53.130;8.244;2023-02-15T13:23:41;31.13;;;24.47;;
10166;SDS011;62970;53.130;8.244;2023-02-15T13:26:17;31.17;;;25.00;;
10166;SDS011;62970;53.130;8.244;2023-02-15T13:31:49;28.53;;;23.90;;
10166;SDS011;62970;53.130;8.244;2023-02-15T13:34:22;29.70;;;25.20;;
10166;SDS011;62970;53.130;8.244;2023-02-15T13:36:57;30.10;;;24.63;;
10166;SDS011;62970;53.130;8.244;2023-02-15T13:39:34;29.20;;;24.30;;
10166;SDS011;62970;53.130;8.244;2023-02-15T13:42:18;29.33;;;24.23;;
10166;SDS011;62970;53.130;8.244;2023-02-15T13:45:02;27.60;;;24.17;;
10166;SDS011;62970;53.130;8.244;2023-02-15T13:47:48;30.80;;;24.40;;
10166;SDS011;62970;53.130;8.244;2023-02-15T13:50:31;28.53;;;23.17;;
10166;SDS011;62970;53.130;8.244;2023-02-15T13:53:22;31.10;;;24.33;;
10166;SDS011;62970;53.130;8.244;2023-02-15T13:56:22;27.30;;;22.50;;
10166;SDS011;62970;53.130;8.244;2023-02-15T14:02:37;29.50;;;23.03;;
10166;SDS011;62970;53.130;8.244;2023-02-15T14:05:54;28.20;;;23.10;;
10166;SDS011;62970;53.130;8.244;2023-02-15T14:08:48;27.80;;;23.43;;
10166;SDS011;62970;53.130;8.244;2023-02-15T14:11:35;28.90;;;23.07;;
10166;SDS011;62970;53.130;8.244;2023-02-15T14:14:20;28.03;;;23.27;;
10166;SDS011;62970;53.130;8.244;2023-02-15T14:17:09;27.63;;;22.23;;
10166;SDS011;62970;53.130;8.244;2023-02-15T14:19:54;28.97;;;22.93;;
10166;SDS011;62970;53.130;8.244;2023-02-15T14:22:34;28.93;;;23.33;;
10166;SDS011;62970;53.130;8.244;2023-02-15T14:25:15;27.37;;;22.37;;
10166;SDS011;62970;53.130;8.244;2023-02-15T14:27:59;28.60;;;23.43;;
10166;SDS011;62970;53.130;8.244;2023-02-15T14:30:41;30.57;;;23.13;;
10166;SDS011;62970;53.130;8.244;2023-02-15T14:33:24;27.57;;;22.30;;
10166;SDS011;62970;53.130;8.244;2023-02-15T14:36:06;27.37;;;22.47;;
10166;SDS011;62970;53.130;8.244;2023-02-15T14:38:43;27.00;;;21.63;;
10166;SDS011;62970;53.130;8.244;2023-02-15T14:41:26;30.33;;;24.40;;
10166;SDS011;62970;53.130;8.244;2023-02-15T14:44:05;28.03;;;23.57;;
10166;SDS011;62970;53.130;8.244;2023-02-15T14:46:45;27.77;;;22.13;;
10166;SDS011;62970;53.130;8.244;2023-02-15T14:49:21;30.60;;;23.40;;
10166;SDS011;62970;53.130;8.244;2023-02-15T14:51:57;28.03;;;22.80;;
10166;SDS011;62970;53.130;8.244;2023-02-15T14:57:34;26.73;;;21.67;;
10166;SDS011;62970;53.130;8.244;2023-02-15T15:03:12;28.37;;;22.10;;
10166;SDS011;62970;53.130;8.244;2023-02-15T15:05:53;28.80;;;23.10;;
10166;SDS011;62970;53.130;8.244;2023-02-15T15:08:31;26.67;;;22.37;;
10166;SDS011;62970;53.130;8.244;2023-02-15T15:14:07;27.40;;;20.97;;
10166;SDS011;62970;53.130;8.244;2023-02-15T15:16:49;27.60;;;22.80;;
10166;SDS011;62970;53.130;8.244;2023-02-15T15:22:33;28.50;;;22.33;;
10166;SDS011;62970;53.130;8.244;2023-02-15T15:25:08;30.83;;;24.70;;
10166;SDS011;62970;53.130;8.244;2023-02-15T15:27:56;33.03;;;25.47;;
10166;SDS011;62970;53.130;8.244;2023-02-15T15:36:47;29.70;;;24.33;;
10166;SDS011;62970;53.130;8.244;2023-02-15T15:40:09;31.27;;;24.10;;
10166;SDS011;62970;53.130;8.244;2023-02-15T15:43:13;30.97;;;24.70;;
10166;SDS011;62970;53.130;8.244;2023-02-15T15:46:26;34.23;;;25.50;;
10166;SDS011;62970;53.130;8.244;2023-02-15T15:49:28;31.17;;;23.80;;
10166;SDS011;62970;53.130;8.244;2023-02-15T15:52:08;31.20;;;24.97;;
10166;SDS011;62970;53.130;8.244;2023-02-15T15:54:43;30.10;;;23.57;;
10166;SDS011;62970;53.130;8.244;2023-02-15T15:57:22;27.60;;;22.67;;
10166;SDS011;62970;53.130;8.244;2023-02-15T15:59:59;30.63;;;23.67;;
10166;SDS011;62970;53.130;8.244;2023-02-15T16:02:30;29.57;;;23.17;;
10166;SDS011;62970;53.130;8.244;2023-02-15T16:05:06;27.97;;;22.57;;
10166;SDS011;62970;53.130;8.244;2023-02-15T16:07:43;28.93;;;22.93;;
10166;SDS011;62970;53.130;8.244;2023-02-15T16:10:20;30.53;;;24.10;;
10166;SDS011;62970;53.130;8.244;2023-02-15T16:12:53;29.73;;;23.53;;
10166;SDS011;62970;53.130;8.244;2023-02-15T16:15:24;32.53;;;24.57;;